createdAt,value
2022-08-17T00:01:16.780Z,99.90
2022-08-17T00:04:09.297Z,99.90
2022-08-17T00:06:58.341Z,99.90
2022-08-17T00:09:44.994Z,99.90
2022-08-17T00:12:41.924Z,99.90
2022-08-17T00:15:30.777Z,99.90
2022-08-17T00:19:01.169Z,99.90
2022-08-17T00:21:25.290Z,99.90
2022-08-17T00:24:12.618Z,99.90
2022-08-17T00:26:59.463Z,99.90
2022-08-17T00:29:47.373Z,99.90
2022-08-17T00:33:14.382Z,99.90
2022-08-17T00:35:46.995Z,99.90
2022-08-17T00:38:33.846Z,99.90
2022-08-17T00:41:24.306Z,99.90
2022-08-17T00:44:12.096Z,99.90
2022-08-17T00:47:00.408Z,99.90
2022-08-17T00:49:47.206Z,99.90
2022-08-17T00:52:38.239Z,99.90
2022-08-17T00:55:26.295Z,99.90
2022-08-17T00:58:12.946Z,99.90
2022-08-17T01:01:02.085Z,99.90
2022-08-17T01:03:50.255Z,99.90
2022-08-17T01:06:37.442Z,99.90
2022-08-17T01:09:24.493Z,99.90
2022-08-17T01:12:13.087Z,99.90
2022-08-17T01:14:59.878Z,99.90
2022-08-17T01:17:46.848Z,99.90
2022-08-17T01:20:42.643Z,99.90
2022-08-17T01:23:36.826Z,99.90
2022-08-17T01:26:24.347Z,99.90
2022-08-17T01:29:11.630Z,99.90
2022-08-17T01:32:03.558Z,99.90
2022-08-17T01:34:50.995Z,99.90
2022-08-17T01:37:41.089Z,99.90
2022-08-17T01:40:35.422Z,99.90
2022-08-17T01:43:23.160Z,99.90
2022-08-17T01:46:09.943Z,99.90
2022-08-17T01:48:57.822Z,99.90
2022-08-17T01:51:44.429Z,99.90
2022-08-17T01:54:31.387Z,99.90
2022-08-17T01:57:19.491Z,99.90
2022-08-17T02:00:08.356Z,99.90
2022-08-17T02:02:57.562Z,99.90
2022-08-17T02:05:44.384Z,99.90
2022-08-17T02:08:37.030Z,99.90
2022-08-17T02:11:25.789Z,99.90
2022-08-17T02:14:14.130Z,99.90
2022-08-17T02:17:00.725Z,99.90
2022-08-17T02:19:47.289Z,99.90
2022-08-17T02:22:35.206Z,99.90
2022-08-17T02:25:22.797Z,99.90
2022-08-17T02:28:12.331Z,99.90
2022-08-17T02:31:05.607Z,99.90
2022-08-17T02:34:00.428Z,99.90
2022-08-17T02:36:53.342Z,99.90
2022-08-17T02:39:39.908Z,99.90
2022-08-17T02:42:31.054Z,99.90
2022-08-17T02:45:21.061Z,99.90
2022-08-17T02:48:09.238Z,99.90
2022-08-17T02:50:55.942Z,99.90
2022-08-17T02:53:42.378Z,99.90
2022-08-17T02:56:28.826Z,99.90
2022-08-17T02:59:15.239Z,99.90
2022-08-17T03:02:04.013Z,99.90
2022-08-17T03:04:52.016Z,99.90
2022-08-17T03:07:39.369Z,99.90
2022-08-17T03:10:26.333Z,99.90
2022-08-17T03:13:14.421Z,99.90
2022-08-17T03:16:01.456Z,99.90
2022-08-17T03:18:48.493Z,99.90
2022-08-17T03:21:36.785Z,99.90
2022-08-17T03:24:26.811Z,99.90
2022-08-17T03:27:15.635Z,99.90
2022-08-17T03:30:03.218Z,99.90
2022-08-17T03:32:51.988Z,99.90
2022-08-17T03:35:41.195Z,99.90
2022-08-17T03:38:29.114Z,99.90
2022-08-17T03:41:25.770Z,99.90
2022-08-17T03:44:12.497Z,99.90
2022-08-17T03:47:16.188Z,99.90
2022-08-17T03:50:35.241Z,99.90
2022-08-17T03:53:47.410Z,99.90
2022-08-17T03:56:45.494Z,99.90
2022-08-17T03:59:32.705Z,99.90
2022-08-17T04:02:23.198Z,99.90
2022-08-17T04:05:10.114Z,99.90
2022-08-17T04:07:57.061Z,99.90
2022-08-17T04:10:44.989Z,99.90
2022-08-17T04:13:33.632Z,99.90
2022-08-17T04:16:20.310Z,99.90
2022-08-17T04:19:07.498Z,99.90
2022-08-17T04:21:54.469Z,99.90
2022-08-17T04:24:40.955Z,99.90
2022-08-17T04:27:27.268Z,99.90
2022-08-17T04:30:16.487Z,99.90
2022-08-17T04:33:09.760Z,99.90
2022-08-17T04:35:59.837Z,99.90
2022-08-17T04:38:47.385Z,99.90
2022-08-17T04:41:51.162Z,99.90
2022-08-17T04:44:38.171Z,99.90
2022-08-17T04:47:26.138Z,99.90
2022-08-17T04:50:12.617Z,99.90
2022-08-17T04:52:59.222Z,99.90
2022-08-17T04:55:46.683Z,99.90
2022-08-17T04:58:33.266Z,99.90
2022-08-17T05:01:23.818Z,99.90
2022-08-17T05:04:21.339Z,99.90
2022-08-17T05:07:23.952Z,99.90
2022-08-17T05:10:11.538Z,99.90
2022-08-17T05:13:02.146Z,99.90
2022-08-17T05:15:50.794Z,99.90
2022-08-17T05:18:38.788Z,99.90
2022-08-17T05:21:28.284Z,99.90
2022-08-17T05:24:38.585Z,99.90
2022-08-17T05:27:21.254Z,99.90
2022-08-17T05:30:10.683Z,99.90
2022-08-17T05:32:59.342Z,99.90
2022-08-17T05:35:48.135Z,99.90
2022-08-17T05:38:36.241Z,99.90
2022-08-17T05:41:22.608Z,99.90
2022-08-17T05:44:09.540Z,99.90
2022-08-17T05:46:56.895Z,99.90
2022-08-17T05:49:43.322Z,99.90
2022-08-17T05:52:37.330Z,99.90
2022-08-17T05:55:35.770Z,99.90
2022-08-17T05:58:27.796Z,99.90
2022-08-17T06:01:25.070Z,99.90
2022-08-17T06:04:28.092Z,99.90
2022-08-17T06:07:22.571Z,99.90
2022-08-17T06:10:15.709Z,99.90
2022-08-17T06:13:16.906Z,99.90
2022-08-17T06:16:33.793Z,99.90
2022-08-17T06:19:19.709Z,99.90
2022-08-17T06:22:08.541Z,99.90
2022-08-17T06:25:01.018Z,99.90
2022-08-17T06:27:53.826Z,99.90
2022-08-17T06:30:58.471Z,99.90
2022-08-17T06:33:47.411Z,99.90
2022-08-17T06:36:50.500Z,99.90
2022-08-17T06:39:50.718Z,99.90
2022-08-17T06:42:54.673Z,99.90
2022-08-17T06:46:02.084Z,99.90
2022-08-17T06:49:07.399Z,99.90
2022-08-17T06:51:58.706Z,99.90
2022-08-17T06:54:56.200Z,99.90
2022-08-17T06:57:47.086Z,99.90
2022-08-17T07:00:40.705Z,99.90
2022-08-17T07:03:35.739Z,99.90
2022-08-17T07:06:26.052Z,99.90
2022-08-17T07:09:19.678Z,99.90
2022-08-17T07:12:15.033Z,99.90
2022-08-17T07:15:12.115Z,99.90
2022-08-17T07:18:00.679Z,99.90
2022-08-17T07:20:53.697Z,99.90
2022-08-17T07:23:50.595Z,99.90
2022-08-17T07:26:38.857Z,99.90
2022-08-17T07:29:27.049Z,99.90
2022-08-17T07:32:17.853Z,99.90
2022-08-17T07:35:18.350Z,99.90
2022-08-17T07:38:24.661Z,99.90
2022-08-17T07:41:13.112Z,99.30
2022-08-17T07:43:59.719Z,98.30
2022-08-17T07:47:08.819Z,97.90
2022-08-17T07:49:55.517Z,97.20
2022-08-17T07:52:50.593Z,97.70
2022-08-17T07:55:41.740Z,97.80
2022-08-17T07:58:28.738Z,98.30
2022-08-17T08:01:18.243Z,98.50
2022-08-17T08:04:43.168Z,99.20
2022-08-17T08:07:38.323Z,99.80
2022-08-17T08:10:32.219Z,99.90
2022-08-17T08:13:25.746Z,99.90
2022-08-17T08:16:24.235Z,99.90
2022-08-17T08:19:12.782Z,99.90
2022-08-17T08:22:05.521Z,99.90
2022-08-17T08:25:05.298Z,99.90
2022-08-17T08:28:03.399Z,99.90
2022-08-17T08:31:02.384Z,99.90
2022-08-17T08:33:59.323Z,99.90
2022-08-17T08:37:14.793Z,99.90
2022-08-17T08:40:11.549Z,99.90
2022-08-17T08:43:09.248Z,99.90
2022-08-17T08:46:06.710Z,99.90
2022-08-17T08:50:01.212Z,99.90
2022-08-17T08:53:04.681Z,99.90
2022-08-17T08:55:56.319Z,99.90
2022-08-17T08:58:53.213Z,99.90
2022-08-17T09:01:50.788Z,99.90
2022-08-17T09:05:13.429Z,99.90
2022-08-17T09:08:04.655Z,99.90
2022-08-17T09:11:00.547Z,99.90
2022-08-17T09:13:55.573Z,99.90
2022-08-17T09:16:49.897Z,99.90
2022-08-17T09:19:43.656Z,99.90
2022-08-17T09:22:36.681Z,99.90
2022-08-17T09:25:27.044Z,99.90
2022-08-17T09:28:20.134Z,99.90
2022-08-17T09:31:10.984Z,99.90
2022-08-17T09:34:03.018Z,99.90
2022-08-17T09:37:02.479Z,99.90
2022-08-17T09:40:00.316Z,99.90
2022-08-17T09:42:50.830Z,99.90
2022-08-17T09:45:43.712Z,99.90
2022-08-17T09:48:34.628Z,99.90
2022-08-17T09:51:30.592Z,99.90
2022-08-17T09:54:38.791Z,99.90
2022-08-17T09:57:37.046Z,99.90
2022-08-17T10:00:29.017Z,99.90
2022-08-17T10:03:28.702Z,99.90
2022-08-17T10:06:22.259Z,99.90
2022-08-17T10:09:18.438Z,99.90
2022-08-17T10:12:20.316Z,99.90
2022-08-17T10:15:23.481Z,99.90
2022-08-17T10:18:41.278Z,99.90
2022-08-17T10:21:47.500Z,99.90
2022-08-17T10:25:13.496Z,99.90
2022-08-17T10:28:19.732Z,99.90
2022-08-17T10:31:34.212Z,99.90
2022-08-17T10:34:49.362Z,99.90
2022-08-17T10:37:56.914Z,99.90
2022-08-17T10:40:54.293Z,99.90
2022-08-17T10:44:37.146Z,99.90
2022-08-17T10:47:08.727Z,99.90
2022-08-17T10:49:56.062Z,99.90
2022-08-17T10:52:52.573Z,99.90
2022-08-17T10:55:40.999Z,99.90
2022-08-17T10:58:39.677Z,99.90
2022-08-17T11:01:57.875Z,99.90
2022-08-17T11:04:57.193Z,99.90
2022-08-17T11:07:58.466Z,99.90
2022-08-17T11:10:55.738Z,99.90
2022-08-17T11:13:56.998Z,99.90
2022-08-17T11:16:53.357Z,99.90
2022-08-17T11:20:13.474Z,99.90
2022-08-17T11:23:23.852Z,99.90
2022-08-17T11:26:26.162Z,99.90
2022-08-17T11:29:24.637Z,99.90
2022-08-17T11:32:28.114Z,99.90
2022-08-17T11:35:32.436Z,99.90
2022-08-17T11:38:28.431Z,99.90
2022-08-17T11:41:27.337Z,99.90
2022-08-17T11:44:30.035Z,99.90
2022-08-17T11:47:39.573Z,99.90
2022-08-17T11:51:05.870Z,99.90
2022-08-17T11:54:32.340Z,99.90
2022-08-17T11:58:05.514Z,99.90
2022-08-17T12:00:57.677Z,99.90
2022-08-17T12:03:55.510Z,99.90
2022-08-17T12:06:51.106Z,99.90
2022-08-17T12:09:42.529Z,99.90
2022-08-17T12:12:34.222Z,99.90
2022-08-17T12:15:28.649Z,99.90
2022-08-17T12:18:22.180Z,99.90
2022-08-17T12:21:18.393Z,99.90
2022-08-17T12:24:14.980Z,99.90
2022-08-17T12:27:05.195Z,99.90
2022-08-17T12:29:52.253Z,99.90
2022-08-17T12:32:40.610Z,99.90
2022-08-17T12:35:33.107Z,99.90
2022-08-17T12:38:32.681Z,99.90
2022-08-17T12:41:34.102Z,99.90
2022-08-17T12:44:23.432Z,99.90
2022-08-17T12:47:21.828Z,99.90
2022-08-17T12:50:29.144Z,99.90
2022-08-17T12:53:21.564Z,99.90
2022-08-17T12:56:12.328Z,99.90
2022-08-17T12:58:59.133Z,99.90
2022-08-17T13:01:49.387Z,99.90
2022-08-17T13:04:40.458Z,99.70
2022-08-17T13:07:36.432Z,99.90
2022-08-17T13:10:32.402Z,99.80
2022-08-17T13:13:22.508Z,98.80
2022-08-17T13:16:17.607Z,99.10
2022-08-17T13:19:08.827Z,98.10
2022-08-17T13:21:58.574Z,98.00
2022-08-17T13:24:54.024Z,97.70
2022-08-17T13:27:44.130Z,97.90
2022-08-17T13:30:33.311Z,98.00
2022-08-17T13:33:43.452Z,97.50
2022-08-17T13:36:33.423Z,97.10
2022-08-17T13:39:24.078Z,97.20
2022-08-17T13:42:33.129Z,96.40
2022-08-17T13:45:43.370Z,96.60
2022-08-17T13:48:33.903Z,97.60
2022-08-17T13:51:33.407Z,96.20
2022-08-17T13:54:25.377Z,96.00
2022-08-17T13:57:22.437Z,96.00
2022-08-17T14:00:13.117Z,95.90
2022-08-17T14:03:02.796Z,95.50
2022-08-17T14:05:50.231Z,94.90
2022-08-17T14:08:38.086Z,95.70
2022-08-17T14:11:25.421Z,95.40
2022-08-17T14:14:12.784Z,95.10
2022-08-17T14:17:00.332Z,94.50
2022-08-17T14:19:48.225Z,94.80
2022-08-17T14:22:37.860Z,95.40
2022-08-17T14:25:27.390Z,94.70
2022-08-17T14:28:14.117Z,94.50
2022-08-17T14:31:02.020Z,94.40
2022-08-17T14:33:48.783Z,94.30
2022-08-17T14:36:36.982Z,94.20
2022-08-17T14:39:23.729Z,95.10
2022-08-17T14:42:11.416Z,95.60
2022-08-17T14:44:58.963Z,94.40
2022-08-17T14:47:46.422Z,94.60
2022-08-17T14:50:35.747Z,93.90
2022-08-17T14:53:23.998Z,93.30
2022-08-17T14:56:10.832Z,93.00
2022-08-17T14:58:57.666Z,92.50
2022-08-17T15:01:47.692Z,92.70
2022-08-17T15:04:34.661Z,92.10
2022-08-17T15:07:24.277Z,92.20
2022-08-17T15:10:18.928Z,92.20
2022-08-17T15:13:06.047Z,91.70
2022-08-17T15:15:53.895Z,92.30
2022-08-17T15:18:41.174Z,92.20
2022-08-17T15:21:27.747Z,92.30
2022-08-17T15:24:15.166Z,91.50
2022-08-17T15:27:03.500Z,91.00
2022-08-17T15:29:50.148Z,91.10
2022-08-17T15:32:40.505Z,90.80
2022-08-17T15:35:29.772Z,91.00
2022-08-17T15:38:16.186Z,91.10
2022-08-17T15:41:03.788Z,89.60
2022-08-17T15:43:51.753Z,90.20
2022-08-17T15:46:38.346Z,89.00
2022-08-17T15:49:26.120Z,88.10
2022-08-17T15:52:18.983Z,88.80
2022-08-17T15:55:07.435Z,88.50
2022-08-17T15:57:53.987Z,89.10
2022-08-17T16:00:50.431Z,90.40
2022-08-17T16:04:04.995Z,88.90
2022-08-17T16:06:57.326Z,88.90
2022-08-17T16:09:44.329Z,87.90
2022-08-17T16:12:31.058Z,88.80
2022-08-17T16:15:19.006Z,90.00
2022-08-17T16:18:06.979Z,88.90
2022-08-17T16:20:54.893Z,88.60
2022-08-17T16:23:41.718Z,88.00
2022-08-17T16:26:30.218Z,88.20
2022-08-17T16:29:16.849Z,88.00
2022-08-17T16:32:10.433Z,88.20
2022-08-17T16:35:02.894Z,87.70
2022-08-17T16:37:49.924Z,88.90
2022-08-17T16:40:36.614Z,90.50
2022-08-17T16:43:23.371Z,91.70
2022-08-17T16:46:11.284Z,91.30
2022-08-17T16:48:58.050Z,90.50
2022-08-17T16:51:48.342Z,90.50
2022-08-17T16:54:35.842Z,91.30
2022-08-17T16:57:23.324Z,90.90
2022-08-17T17:00:12.500Z,91.20
2022-08-17T17:03:18.119Z,91.40
2022-08-17T17:06:15.045Z,90.70
2022-08-17T17:09:06.584Z,90.20
2022-08-17T17:11:57.018Z,91.20
2022-08-17T17:14:45.883Z,92.40
2022-08-17T17:17:36.266Z,91.10
2022-08-17T17:20:29.840Z,93.00
2022-08-17T17:23:37.407Z,94.30
2022-08-17T17:26:48.811Z,95.00
2022-08-17T17:29:57.983Z,95.70
2022-08-17T17:32:50.382Z,95.80
2022-08-17T17:35:43.524Z,96.40
2022-08-17T17:38:35.356Z,96.80
2022-08-17T17:41:26.613Z,96.90
2022-08-17T17:44:19.827Z,97.00
2022-08-17T17:47:07.250Z,97.30
2022-08-17T17:49:53.937Z,97.30
2022-08-17T17:52:48.937Z,97.50
2022-08-17T17:55:44.041Z,97.60
2022-08-17T17:58:40.500Z,97.80
2022-08-17T18:01:41.973Z,98.10
2022-08-17T18:04:33.168Z,98.60
2022-08-17T18:07:31.762Z,98.60
2022-08-17T18:10:30.524Z,98.50
2022-08-17T18:13:27.768Z,98.40
2022-08-17T18:16:15.877Z,98.80
2022-08-17T18:19:04.092Z,99.20
2022-08-17T18:22:02.155Z,99.50
2022-08-17T18:24:55.706Z,99.80
2022-08-17T18:27:52.378Z,99.90
2022-08-17T18:30:39.047Z,99.90
2022-08-17T18:33:26.863Z,99.90
2022-08-17T18:36:28.122Z,99.90
2022-08-17T18:39:18.730Z,99.90
2022-08-17T18:42:23.320Z,99.90
2022-08-17T18:45:10.885Z,99.90
2022-08-17T18:47:57.804Z,99.90
2022-08-17T18:50:44.785Z,99.90
2022-08-17T18:53:37.620Z,99.90
2022-08-17T18:56:30.752Z,99.90
2022-08-17T18:59:28.691Z,99.90
2022-08-17T19:02:43.370Z,99.90
2022-08-17T19:05:36.730Z,99.90
2022-08-17T19:08:33.535Z,99.90
2022-08-17T19:11:26.860Z,99.90
2022-08-17T19:14:17.517Z,99.90
2022-08-17T19:17:10.824Z,99.90
2022-08-17T19:20:05.921Z,99.90
2022-08-17T19:23:09.662Z,99.90
2022-08-17T19:26:01.574Z,99.90
2022-08-17T19:28:55.131Z,99.90
2022-08-17T19:31:42.497Z,99.90
2022-08-17T19:34:34.351Z,99.90
2022-08-17T19:37:37.553Z,99.90
2022-08-17T19:40:52.324Z,99.90
2022-08-17T19:44:07.852Z,99.90
2022-08-17T19:47:02.875Z,99.90
2022-08-17T19:50:00.941Z,99.90
2022-08-17T19:52:57.260Z,99.90
2022-08-17T19:55:54.306Z,99.90
2022-08-17T19:58:51.686Z,99.90
2022-08-17T20:01:46.103Z,99.90
2022-08-17T20:04:40.629Z,99.90
2022-08-17T20:07:32.793Z,99.90
2022-08-17T20:10:29.746Z,99.90
2022-08-17T20:13:33.656Z,99.90
2022-08-17T20:16:20.913Z,99.90
2022-08-17T20:19:20.807Z,99.90
2022-08-17T20:22:12.452Z,99.90
2022-08-17T20:25:08.070Z,99.90
2022-08-17T20:28:05.967Z,99.90
2022-08-17T20:30:53.628Z,99.90
2022-08-17T20:33:40.366Z,99.90
2022-08-17T20:36:28.725Z,99.90
2022-08-17T20:39:31.967Z,99.90
2022-08-17T20:42:33.583Z,99.90
2022-08-17T20:46:03.870Z,99.90
2022-08-17T20:48:54.305Z,99.90
2022-08-17T20:52:01.675Z,99.90
2022-08-17T20:54:51.610Z,99.90
2022-08-17T20:57:48.479Z,99.90
2022-08-17T21:00:44.738Z,99.90
2022-08-17T21:03:52.294Z,99.90
2022-08-17T21:07:28.956Z,99.90
2022-08-17T21:10:19.391Z,99.90
2022-08-17T21:13:44.256Z,99.90
2022-08-17T21:16:47.100Z,99.90
2022-08-17T21:20:08.204Z,99.90
2022-08-17T21:23:12.176Z,99.90
2022-08-17T21:26:18.311Z,99.90
2022-08-17T21:29:29.670Z,99.90
2022-08-17T21:32:24.355Z,99.90
2022-08-17T21:35:51.035Z,99.90
2022-08-17T21:38:43.958Z,99.90
2022-08-17T21:41:33.408Z,99.90
2022-08-17T21:44:31.586Z,99.90
2022-08-17T21:47:21.816Z,99.90
2022-08-17T21:50:18.681Z,99.90
2022-08-17T21:53:06.662Z,99.90
2022-08-17T21:55:55.039Z,99.90
2022-08-17T21:58:48.421Z,99.90
2022-08-17T22:01:37.240Z,99.90
2022-08-17T22:04:28.855Z,99.90
2022-08-17T22:07:15.494Z,99.90
2022-08-17T22:10:02.388Z,99.90
2022-08-17T22:13:16.465Z,99.90
2022-08-17T22:16:15.377Z,99.90
2022-08-17T22:19:15.294Z,99.90
2022-08-17T22:22:06.920Z,99.90
2022-08-17T22:24:57.554Z,99.90
2022-08-17T22:27:47.799Z,99.90
2022-08-17T22:30:39.633Z,99.90
2022-08-17T22:33:37.314Z,99.90
2022-08-17T22:36:26.805Z,99.90
2022-08-17T22:39:41.420Z,99.90
2022-08-17T22:42:28.516Z,99.90
2022-08-17T22:45:15.549Z,99.90
2022-08-17T22:48:03.650Z,99.90
2022-08-17T22:50:51.296Z,99.90
2022-08-17T22:53:55.601Z,99.90
2022-08-17T22:57:07.326Z,99.90
2022-08-17T22:59:57.430Z,99.90
2022-08-17T23:03:07.205Z,99.90
2022-08-17T23:06:05.673Z,99.90
2022-08-17T23:08:54.917Z,99.90
2022-08-17T23:11:49.547Z,99.90
2022-08-17T23:14:41.133Z,99.90
2022-08-17T23:17:32.864Z,99.90
2022-08-17T23:20:23.182Z,99.90
2022-08-17T23:23:10.917Z,99.90
2022-08-17T23:25:57.547Z,99.90
2022-08-17T23:28:44.857Z,99.90
2022-08-17T23:31:32.938Z,99.90
2022-08-17T23:34:20.043Z,99.90
2022-08-17T23:37:08.521Z,99.90
2022-08-17T23:39:55.305Z,99.90
2022-08-17T23:42:43.806Z,99.90
2022-08-17T23:45:34.338Z,99.90
2022-08-17T23:48:28.642Z,99.90
2022-08-17T23:51:27.102Z,99.90
2022-08-17T23:54:21.466Z,99.90
2022-08-17T23:57:09.093Z,99.90
2022-08-17T23:59:56.858Z,99.90
